sensor_id;sensor_type;location;lat;lon;timestamp;pressure;altitude;pressure_sealevel;temperature;humidity
58018;BME280;43810;50.860;19.226;2023-03-25T00:01:16;97542.34;;;12.10;82.41
58018;BME280;43810;50.860;19.226;2023-03-25T00:03:42;97537.38;;;12.08;82.37
58018;BME280;43810;50.860;19.226;2023-03-25T00:06:12;97538.56;;;12.11;82.37
58018;BME280;43810;50.860;19.226;2023-03-25T00:08:38;97535.81;;;12.04;82.53
58018;BME280;43810;50.860;19.226;2023-03-25T00:11:04;97542.19;;;11.96;82.36
58018;BME280;43810;50.860;19.226;2023-03-25T00:13:31;97537.13;;;11.87;82.90
58018;BME280;43810;50.860;19.226;2023-03-25T00:15:58;97529.13;;;11.87;82.79
58018;BME280;43810;50.860;19.226;2023-03-25T00:18:26;97536.63;;;11.78;82.49
58018;BME280;43810;50.860;19.226;2023-03-25T00:20:54;97539.91;;;11.68;82.56
58018;BME280;43810;50.860;19.226;2023-03-25T00:23:21;97540.63;;;11.65;82.79
58018;BME280;43810;50.860;19.226;2023-03-25T00:25:48;97537.66;;;11.70;82.74
58018;BME280;43810;50.860;19.226;2023-03-25T00:28:15;97537.97;;;11.65;83.18
58018;BME280;43810;50.860;19.226;2023-03-25T00:30:42;97539.09;;;11.64;82.95
58018;BME280;43810;50.860;19.226;2023-03-25T00:33:09;97533.81;;;11.67;82.84
58018;BME280;43810;50.860;19.226;2023-03-25T00:35:36;97544.81;;;11.66;82.64
58018;BME280;43810;50.860;19.226;2023-03-25T00:38:04;97540.63;;;11.65;82.35
58018;BME280;43810;50.860;19.226;2023-03-25T00:40:32;97539.88;;;11.64;82.27
58018;BME280;43810;50.860;19.226;2023-03-25T00:43:02;97538.25;;;11.56;82.24
58018;BME280;43810;50.860;19.226;2023-03-25T00:45:29;97527.19;;;11.54;82.05
58018;BME280;43810;50.860;19.226;2023-03-25T00:47:55;97537.00;;;11.50;81.65
58018;BME280;43810;50.860;19.226;2023-03-25T00:50:22;97527.38;;;11.38;81.99
58018;BME280;43810;50.860;19.226;2023-03-25T00:52:48;97529.19;;;11.34;81.50
58018;BME280;43810;50.860;19.226;2023-03-25T00:55:14;97533.16;;;11.21;81.99
58018;BME280;43810;50.860;19.226;2023-03-25T00:57:41;97537.25;;;11.15;81.91
58018;BME280;43810;50.860;19.226;2023-03-25T01:00:10;97544.66;;;11.06;81.85
58018;BME280;43810;50.860;19.226;2023-03-25T01:02:37;97549.47;;;10.97;80.97
58018;BME280;43810;50.860;19.226;2023-03-25T01:05:09;97551.06;;;10.78;80.95
58018;BME280;43810;50.860;19.226;2023-03-25T01:07:39;97550.75;;;10.61;80.59
58018;BME280;43810;50.860;19.226;2023-03-25T01:10:07;97549.72;;;10.46;79.96
58018;BME280;43810;50.860;19.226;2023-03-25T01:12:33;97538.13;;;10.35;79.74
58018;BME280;43810;50.860;19.226;2023-03-25T01:14:59;97537.53;;;10.22;79.56
58018;BME280;43810;50.860;19.226;2023-03-25T01:17:25;97539.00;;;10.20;78.84
58018;BME280;43810;50.860;19.226;2023-03-25T01:19:51;97534.31;;;10.13;78.54
58018;BME280;43810;50.860;19.226;2023-03-25T01:22:17;97521.34;;;10.08;78.04
58018;BME280;43810;50.860;19.226;2023-03-25T01:24:43;97521.19;;;10.01;78.19
58018;BME280;43810;50.860;19.226;2023-03-25T01:27:09;97511.97;;;9.95;77.79
58018;BME280;43810;50.860;19.226;2023-03-25T01:29:35;97510.66;;;9.85;77.99
58018;BME280;43810;50.860;19.226;2023-03-25T01:32:01;97514.34;;;9.81;78.18
58018;BME280;43810;50.860;19.226;2023-03-25T01:34:27;97516.91;;;9.77;78.10
58018;BME280;43810;50.860;19.226;2023-03-25T01:36:52;97516.84;;;9.74;77.63
58018;BME280;43810;50.860;19.226;2023-03-25T01:39:20;97507.28;;;9.69;78.12
58018;BME280;43810;50.860;19.226;2023-03-25T01:41:47;97520.09;;;9.67;78.08
58018;BME280;43810;50.860;19.226;2023-03-25T01:46:50;97516.91;;;9.58;78.68
58018;BME280;43810;50.860;19.226;2023-03-25T01:49:23;97513.25;;;9.47;79.02
58018;BME280;43810;50.860;19.226;2023-03-25T01:51:57;97503.06;;;9.49;78.86
58018;BME280;43810;50.860;19.226;2023-03-25T01:54:25;97500.28;;;9.42;79.09
58018;BME280;43810;50.860;19.226;2023-03-25T01:56:52;97503.19;;;9.37;78.97
58018;BME280;43810;50.860;19.226;2023-03-25T01:59:22;97489.09;;;9.17;79.82
58018;BME280;43810;50.860;19.226;2023-03-25T02:01:49;97495.41;;;9.12;80.50
58018;BME280;43810;50.860;19.226;2023-03-25T02:04:26;97505.47;;;9.22;79.90
58018;BME280;43810;50.860;19.226;2023-03-25T02:06:59;97500.44;;;9.33;79.86
58018;BME280;43810;50.860;19.226;2023-03-25T02:09:26;97504.94;;;9.48;79.45
58018;BME280;43810;50.860;19.226;2023-03-25T02:11:52;97505.38;;;9.69;78.79
58018;BME280;43810;50.860;19.226;2023-03-25T02:14:22;97505.19;;;9.78;78.29
58018;BME280;43810;50.860;19.226;2023-03-25T02:20:11;97499.34;;;9.88;77.88
58018;BME280;43810;50.860;19.226;2023-03-25T02:23:27;97504.28;;;9.90;77.81
58018;BME280;43810;50.860;19.226;2023-03-25T02:28:57;97502.81;;;9.92;77.71
58018;BME280;43810;50.860;19.226;2023-03-25T02:37:02;97485.78;;;9.93;77.17
58018;BME280;43810;50.860;19.226;2023-03-25T02:39:46;97493.59;;;10.05;76.73
58018;BME280;43810;50.860;19.226;2023-03-25T02:42:25;97482.91;;;10.02;76.90
58018;BME280;43810;50.860;19.226;2023-03-25T02:47:37;97493.94;;;10.04;76.76
58018;BME280;43810;50.860;19.226;2023-03-25T02:50:33;97484.53;;;10.06;76.58
58018;BME280;43810;50.860;19.226;2023-03-25T02:53:04;97495.47;;;10.05;76.81
58018;BME280;43810;50.860;19.226;2023-03-25T02:55:33;97512.19;;;10.05;76.89
58018;BME280;43810;50.860;19.226;2023-03-25T02:58:04;97518.59;;;10.04;76.83
58018;BME280;43810;50.860;19.226;2023-03-25T03:00:32;97515.41;;;9.95;77.36
58018;BME280;43810;50.860;19.226;2023-03-25T03:03:01;97526.28;;;9.90;77.69
58018;BME280;43810;50.860;19.226;2023-03-25T03:10:52;97520.19;;;9.90;77.79
58018;BME280;43810;50.860;19.226;2023-03-25T03:16:11;97531.78;;;9.82;77.68
58018;BME280;43810;50.860;19.226;2023-03-25T03:26:46;97518.53;;;9.82;77.21
58018;BME280;43810;50.860;19.226;2023-03-25T03:29:19;97516.28;;;9.84;77.23
58018;BME280;43810;50.860;19.226;2023-03-25T03:36:56;97521.31;;;9.89;77.02
58018;BME280;43810;50.860;19.226;2023-03-25T03:39:31;97532.91;;;9.81;77.16
58018;BME280;43810;50.860;19.226;2023-03-25T03:42:04;97524.72;;;9.70;77.69
58018;BME280;43810;50.860;19.226;2023-03-25T03:44:34;97529.78;;;9.75;77.50
58018;BME280;43810;50.860;19.226;2023-03-25T03:47:06;97531.84;;;9.66;77.81
58018;BME280;43810;50.860;19.226;2023-03-25T03:49:39;97542.44;;;9.66;77.77
58018;BME280;43810;50.860;19.226;2023-03-25T03:52:12;97537.13;;;9.66;77.73
58018;BME280;43810;50.860;19.226;2023-03-25T03:54:48;97536.03;;;9.67;77.59
58018;BME280;43810;50.860;19.226;2023-03-25T03:57:29;97534.44;;;9.47;78.13
58018;BME280;43810;50.860;19.226;2023-03-25T04:02:38;97543.19;;;9.31;78.69
58018;BME280;43810;50.860;19.226;2023-03-25T04:05:07;97544.22;;;9.27;78.85
58018;BME280;43810;50.860;19.226;2023-03-25T04:10:57;97559.28;;;9.07;79.37
58018;BME280;43810;50.860;19.226;2023-03-25T04:13:34;97549.69;;;9.03;79.56
58018;BME280;43810;50.860;19.226;2023-03-25T04:16:01;97555.25;;;8.97;79.91
58018;BME280;43810;50.860;19.226;2023-03-25T04:18:27;97544.06;;;8.88;79.81
58018;BME280;43810;50.860;19.226;2023-03-25T04:20:54;97543.88;;;8.81;80.08
58018;BME280;43810;50.860;19.226;2023-03-25T04:23:20;97553.19;;;8.75;80.41
58018;BME280;43810;50.860;19.226;2023-03-25T04:25:46;97554.88;;;8.68;80.70
58018;BME280;43810;50.860;19.226;2023-03-25T04:28:14;97553.09;;;8.72;80.66
58018;BME280;43810;50.860;19.226;2023-03-25T04:30:43;97561.06;;;8.72;80.50
58018;BME280;43810;50.860;19.226;2023-03-25T04:33:13;97558.88;;;8.61;80.76
58018;BME280;43810;50.860;19.226;2023-03-25T04:35:39;97568.63;;;8.57;81.26
58018;BME280;43810;50.860;19.226;2023-03-25T04:38:06;97561.88;;;8.60;81.27
58018;BME280;43810;50.860;19.226;2023-03-25T04:40:32;97563.50;;;8.49;81.42
58018;BME280;43810;50.860;19.226;2023-03-25T04:42:58;97561.75;;;8.41;81.62
58018;BME280;43810;50.860;19.226;2023-03-25T04:45:25;97559.97;;;8.45;81.47
58018;BME280;43810;50.860;19.226;2023-03-25T04:47:53;97565.09;;;8.38;81.58
58018;BME280;43810;50.860;19.226;2023-03-25T04:50:25;97568.06;;;8.36;81.66
58018;BME280;43810;50.860;19.226;2023-03-25T04:52:52;97573.81;;;8.38;81.51
58018;BME280;43810;50.860;19.226;2023-03-25T04:55:19;97572.47;;;8.32;81.85
58018;BME280;43810;50.860;19.226;2023-03-25T04:57:47;97580.97;;;8.38;81.70
58018;BME280;43810;50.860;19.226;2023-03-25T05:00:15;97579.84;;;8.39;81.53
58018;BME280;43810;50.860;19.226;2023-03-25T05:02:46;97588.53;;;8.39;81.84
58018;BME280;43810;50.860;19.226;2023-03-25T05:05:19;97591.63;;;8.41;81.75
58018;BME280;43810;50.860;19.226;2023-03-25T05:07:46;97589.31;;;8.40;81.74
58018;BME280;43810;50.860;19.226;2023-03-25T05:10:18;97588.03;;;8.34;81.94
58018;BME280;43810;50.860;19.226;2023-03-25T05:12:44;97587.75;;;8.23;82.55
58018;BME280;43810;50.860;19.226;2023-03-25T05:15:11;97572.63;;;8.23;82.67
58018;BME280;43810;50.860;19.226;2023-03-25T05:17:37;97570.94;;;8.31;82.44
58018;BME280;43810;50.860;19.226;2023-03-25T05:20:06;97575.84;;;8.45;81.84
58018;BME280;43810;50.860;19.226;2023-03-25T05:22:34;97586.38;;;8.57;81.47
58018;BME280;43810;50.860;19.226;2023-03-25T05:25:00;97583.00;;;8.72;80.74
58018;BME280;43810;50.860;19.226;2023-03-25T05:27:27;97590.63;;;8.89;80.16
58018;BME280;43810;50.860;19.226;2023-03-25T05:29:56;97595.56;;;8.91;80.05
58018;BME280;43810;50.860;19.226;2023-03-25T05:32:25;97590.94;;;8.88;80.26
58018;BME280;43810;50.860;19.226;2023-03-25T05:34:55;97596.59;;;8.86;80.46
58018;BME280;43810;50.860;19.226;2023-03-25T05:37:21;97584.88;;;8.87;80.66
58018;BME280;43810;50.860;19.226;2023-03-25T05:39:47;97591.91;;;8.80;80.68
58018;BME280;43810;50.860;19.226;2023-03-25T05:42:13;97587.47;;;8.84;81.25
58018;BME280;43810;50.860;19.226;2023-03-25T05:44:40;97596.19;;;8.84;81.25
58018;BME280;43810;50.860;19.226;2023-03-25T05:47:11;97601.81;;;8.83;81.35
58018;BME280;43810;50.860;19.226;2023-03-25T05:49:39;97600.97;;;8.94;81.32
58018;BME280;43810;50.860;19.226;2023-03-25T05:52:06;97603.44;;;9.03;81.44
58018;BME280;43810;50.860;19.226;2023-03-25T05:54:34;97598.75;;;9.12;81.44
58018;BME280;43810;50.860;19.226;2023-03-25T05:57:04;97592.09;;;9.50;80.69
58018;BME280;43810;50.860;19.226;2023-03-25T05:59:30;97590.84;;;9.79;79.35
58018;BME280;43810;50.860;19.226;2023-03-25T06:01:58;97592.34;;;9.95;78.96
58018;BME280;43810;50.860;19.226;2023-03-25T06:04:25;97600.59;;;10.29;78.29
58018;BME280;43810;50.860;19.226;2023-03-25T06:06:51;97593.34;;;10.45;77.40
58018;BME280;43810;50.860;19.226;2023-03-25T06:09:17;97601.00;;;10.50;76.97
58018;BME280;43810;50.860;19.226;2023-03-25T06:11:43;97605.06;;;10.63;75.90
58018;BME280;43810;50.860;19.226;2023-03-25T06:14:09;97595.13;;;10.60;75.48
58018;BME280;43810;50.860;19.226;2023-03-25T06:16:35;97603.81;;;10.57;75.74
58018;BME280;43810;50.860;19.226;2023-03-25T06:19:01;97601.16;;;10.57;75.84
58018;BME280;43810;50.860;19.226;2023-03-25T06:21:29;97610.94;;;10.53;75.66
58018;BME280;43810;50.860;19.226;2023-03-25T06:23:58;97604.00;;;10.49;76.04
58018;BME280;43810;50.860;19.226;2023-03-25T06:26:26;97599.63;;;10.56;76.31
58018;BME280;43810;50.860;19.226;2023-03-25T06:28:52;97611.38;;;10.55;75.96
58018;BME280;43810;50.860;19.226;2023-03-25T06:31:21;97607.09;;;10.51;75.84
58018;BME280;43810;50.860;19.226;2023-03-25T06:33:48;97606.19;;;10.43;76.28
58018;BME280;43810;50.860;19.226;2023-03-25T06:36:16;97610.38;;;10.44;76.63
58018;BME280;43810;50.860;19.226;2023-03-25T06:38:48;97604.22;;;10.40;76.14
58018;BME280;43810;50.860;19.226;2023-03-25T06:41:16;97603.19;;;10.44;76.16
58018;BME280;43810;50.860;19.226;2023-03-25T06:43:46;97605.63;;;10.53;76.75
58018;BME280;43810;50.860;19.226;2023-03-25T06:46:12;97603.19;;;10.87;75.44
58018;BME280;43810;50.860;19.226;2023-03-25T06:48:38;97605.59;;;11.14;74.81
58018;BME280;43810;50.860;19.226;2023-03-25T06:51:04;97610.78;;;11.30;72.78
58018;BME280;43810;50.860;19.226;2023-03-25T06:53:30;97614.22;;;11.31;72.86
58018;BME280;43810;50.860;19.226;2023-03-25T06:55:57;97616.56;;;11.13;73.50
58018;BME280;43810;50.860;19.226;2023-03-25T06:58:23;97617.19;;;11.06;73.43
58018;BME280;43810;50.860;19.226;2023-03-25T07:00:53;97621.03;;;11.09;73.83
58018;BME280;43810;50.860;19.226;2023-03-25T07:03:19;97624.81;;;11.08;72.92
58018;BME280;43810;50.860;19.226;2023-03-25T07:05:47;97613.94;;;10.94;73.24
58018;BME280;43810;50.860;19.226;2023-03-25T07:08:14;97619.16;;;11.09;73.42
58018;BME280;43810;50.860;19.226;2023-03-25T07:10:40;97616.09;;;11.30;73.25
58018;BME280;43810;50.860;19.226;2023-03-25T07:13:07;97605.38;;;11.72;72.41
58018;BME280;43810;50.860;19.226;2023-03-25T07:15:33;97606.59;;;12.08;71.31
58018;BME280;43810;50.860;19.226;2023-03-25T07:17:59;97598.56;;;12.35;70.40
58018;BME280;43810;50.860;19.226;2023-03-25T07:20:25;97592.91;;;12.73;69.04
58018;BME280;43810;50.860;19.226;2023-03-25T07:22:53;97594.81;;;13.10;69.45
58018;BME280;43810;50.860;19.226;2023-03-25T07:25:20;97599.22;;;13.39;67.67
58018;BME280;43810;50.860;19.226;2023-03-25T07:27:47;97595.94;;;13.56;65.76
58018;BME280;43810;50.860;19.226;2023-03-25T07:30:13;97593.31;;;13.67;65.64
58018;BME280;43810;50.860;19.226;2023-03-25T07:32:39;97593.47;;;13.95;64.91
58018;BME280;43810;50.860;19.226;2023-03-25T07:35:05;97596.72;;;14.29;64.69
58018;BME280;43810;50.860;19.226;2023-03-25T07:37:31;97595.63;;;14.45;63.36
58018;BME280;43810;50.860;19.226;2023-03-25T07:39:57;97590.31;;;14.52;61.74
58018;BME280;43810;50.860;19.226;2023-03-25T07:42:22;97591.78;;;14.38;62.38
58018;BME280;43810;50.860;19.226;2023-03-25T07:44:48;97584.84;;;14.20;63.42
58018;BME280;43810;50.860;19.226;2023-03-25T07:47:15;97594.06;;;14.26;63.06
58018;BME280;43810;50.860;19.226;2023-03-25T07:49:40;97592.53;;;14.32;62.50
58018;BME280;43810;50.860;19.226;2023-03-25T07:52:06;97582.63;;;14.32;61.86
58018;BME280;43810;50.860;19.226;2023-03-25T07:54:32;97583.03;;;14.45;62.14
58018;BME280;43810;50.860;19.226;2023-03-25T07:56:58;97587.28;;;14.60;61.21
58018;BME280;43810;50.860;19.226;2023-03-25T07:59:24;97587.22;;;14.39;60.36
58018;BME280;43810;50.860;19.226;2023-03-25T08:01:50;97575.34;;;14.26;62.04
58018;BME280;43810;50.860;19.226;2023-03-25T08:04:16;97577.09;;;14.04;61.77
58018;BME280;43810;50.860;19.226;2023-03-25T08:06:42;97569.44;;;13.95;63.00
58018;BME280;43810;50.860;19.226;2023-03-25T08:09:08;97566.00;;;13.88;62.53
58018;BME280;43810;50.860;19.226;2023-03-25T08:11:34;97563.72;;;13.90;62.64
58018;BME280;43810;50.860;19.226;2023-03-25T08:14:00;97552.75;;;14.13;62.79
58018;BME280;43810;50.860;19.226;2023-03-25T08:16:26;97554.41;;;14.46;60.58
58018;BME280;43810;50.860;19.226;2023-03-25T08:18:52;97548.34;;;14.63;61.74
58018;BME280;43810;50.860;19.226;2023-03-25T08:21:18;97555.25;;;14.89;60.20
58018;BME280;43810;50.860;19.226;2023-03-25T08:23:52;97545.72;;;14.84;59.92
58018;BME280;43810;50.860;19.226;2023-03-25T08:26:24;97548.78;;;14.93;60.20
58018;BME280;43810;50.860;19.226;2023-03-25T08:28:52;97548.00;;;14.96;59.47
58018;BME280;43810;50.860;19.226;2023-03-25T08:31:20;97548.41;;;15.05;60.75
58018;BME280;43810;50.860;19.226;2023-03-25T08:33:46;97546.09;;;15.36;59.34
58018;BME280;43810;50.860;19.226;2023-03-25T08:36:12;97543.03;;;15.48;57.89
58018;BME280;43810;50.860;19.226;2023-03-25T08:38:50;97545.69;;;15.62;57.00
58018;BME280;43810;50.860;19.226;2023-03-25T08:41:16;97539.94;;;15.67;55.36
58018;BME280;43810;50.860;19.226;2023-03-25T08:43:42;97536.53;;;15.53;55.71
58018;BME280;43810;50.860;19.226;2023-03-25T08:46:08;97543.81;;;15.52;56.79
58018;BME280;43810;50.860;19.226;2023-03-25T08:48:35;97542.25;;;15.55;55.39
58018;BME280;43810;50.860;19.226;2023-03-25T08:51:02;97536.91;;;15.44;56.35
58018;BME280;43810;50.860;19.226;2023-03-25T08:53:28;97539.22;;;15.38;56.01
58018;BME280;43810;50.860;19.226;2023-03-25T08:55:56;97538.44;;;15.45;54.94
58018;BME280;43810;50.860;19.226;2023-03-25T08:58:22;97533.88;;;15.53;55.17
58018;BME280;43810;50.860;19.226;2023-03-25T09:00:50;97527.00;;;15.41;54.52
58018;BME280;43810;50.860;19.226;2023-03-25T09:03:23;97536.91;;;15.23;55.38
58018;BME280;43810;50.860;19.226;2023-03-25T09:05:54;97527.72;;;15.31;54.76
58018;BME280;43810;50.860;19.226;2023-03-25T09:08:21;97526.59;;;15.53;55.61
58018;BME280;43810;50.860;19.226;2023-03-25T09:10:47;97524.59;;;15.82;55.70
58018;BME280;43810;50.860;19.226;2023-03-25T09:13:13;97529.22;;;15.71;52.96
58018;BME280;43810;50.860;19.226;2023-03-25T09:15:39;97531.19;;;15.49;54.95
58018;BME280;43810;50.860;19.226;2023-03-25T09:18:05;97539.59;;;15.44;54.94
58018;BME280;43810;50.860;19.226;2023-03-25T09:20:32;97523.91;;;15.64;53.10
58018;BME280;43810;50.860;19.226;2023-03-25T09:22:58;97529.22;;;15.74;53.19
58018;BME280;43810;50.860;19.226;2023-03-25T09:25:24;97529.50;;;16.05;52.26
58018;BME280;43810;50.860;19.226;2023-03-25T09:27:50;97527.91;;;16.14;50.64
58018;BME280;43810;50.860;19.226;2023-03-25T09:30:16;97517.78;;;16.50;51.72
58018;BME280;43810;50.860;19.226;2023-03-25T09:32:41;97523.16;;;17.06;50.18
58018;BME280;43810;50.860;19.226;2023-03-25T09:35:09;97514.97;;;17.64;49.50
58018;BME280;43810;50.860;19.226;2023-03-25T09:37:35;97513.94;;;17.89;46.95
58018;BME280;43810;50.860;19.226;2023-03-25T09:40:03;97517.09;;;18.14;45.71
58018;BME280;43810;50.860;19.226;2023-03-25T09:42:56;97516.84;;;18.32;47.26
58018;BME280;43810;50.860;19.226;2023-03-25T09:45:42;97514.78;;;18.16;45.38
58018;BME280;43810;50.860;19.226;2023-03-25T09:50:53;97503.59;;;17.87;46.03
58018;BME280;43810;50.860;19.226;2023-03-25T09:53:34;97500.56;;;17.48;48.10
58018;BME280;43810;50.860;19.226;2023-03-25T09:56:04;97502.53;;;16.99;48.74
58018;BME280;43810;50.860;19.226;2023-03-25T09:58:47;97493.31;;;17.04;49.14
58018;BME280;43810;50.860;19.226;2023-03-25T10:25:33;97497.00;;;14.04;55.01
58018;BME280;43810;50.860;19.226;2023-03-25T10:28:02;97509.06;;;13.66;59.79
58018;BME280;43810;50.860;19.226;2023-03-25T10:30:34;97501.81;;;13.05;65.26
58018;BME280;43810;50.860;19.226;2023-03-25T10:33:09;97500.44;;;12.77;69.67
58018;BME280;43810;50.860;19.226;2023-03-25T10:35:43;97502.44;;;12.87;69.05
58018;BME280;43810;50.860;19.226;2023-03-25T10:38:18;97489.09;;;13.42;68.20
58018;BME280;43810;50.860;19.226;2023-03-25T10:40:50;97483.63;;;14.04;63.59
58018;BME280;43810;50.860;19.226;2023-03-25T10:45:46;97490.28;;;14.49;61.33
58018;BME280;43810;50.860;19.226;2023-03-25T10:50:42;97483.81;;;14.93;57.41
58018;BME280;43810;50.860;19.226;2023-03-25T10:53:26;97478.84;;;15.05;57.31
58018;BME280;43810;50.860;19.226;2023-03-25T10:56:01;97492.19;;;14.63;56.84
58018;BME280;43810;50.860;19.226;2023-03-25T10:58:29;97484.91;;;14.35;57.36
58018;BME280;43810;50.860;19.226;2023-03-25T11:00:55;97473.47;;;14.34;58.40
58018;BME280;43810;50.860;19.226;2023-03-25T11:03:29;97465.44;;;14.41;56.43
58018;BME280;43810;50.860;19.226;2023-03-25T11:05:56;97471.59;;;14.92;57.28
58018;BME280;43810;50.860;19.226;2023-03-25T11:08:22;97461.25;;;15.22;56.40
58018;BME280;43810;50.860;19.226;2023-03-25T11:10:50;97460.91;;;14.95;55.06
58018;BME280;43810;50.860;19.226;2023-03-25T11:13:24;97472.34;;;14.67;56.40
58018;BME280;43810;50.860;19.226;2023-03-25T11:15:52;97447.50;;;14.38;57.32
58018;BME280;43810;50.860;19.226;2023-03-25T11:18:21;97453.22;;;14.40;57.67
58018;BME280;43810;50.860;19.226;2023-03-25T11:21:12;97462.00;;;15.08;58.17
58018;BME280;43810;50.860;19.226;2023-03-25T11:23:48;97441.19;;;15.80;52.56
58018;BME280;43810;50.860;19.226;2023-03-25T11:26:19;97440.56;;;16.31;51.65
58018;BME280;43810;50.860;19.226;2023-03-25T11:28:48;97451.00;;;16.70;50.85
58018;BME280;43810;50.860;19.226;2023-03-25T11:31:19;97450.88;;;16.91;50.85
58018;BME280;43810;50.860;19.226;2023-03-25T11:34:02;97442.91;;;17.22;48.37
58018;BME280;43810;50.860;19.226;2023-03-25T11:36:30;97440.22;;;17.22;48.34
58018;BME280;43810;50.860;19.226;2023-03-25T11:39:00;97440.25;;;17.18;47.62
58018;BME280;43810;50.860;19.226;2023-03-25T11:41:33;97440.63;;;16.79;48.22
58018;BME280;43810;50.860;19.226;2023-03-25T11:44:04;97449.38;;;16.83;48.44
58018;BME280;43810;50.860;19.226;2023-03-25T11:46:31;97447.25;;;16.61;47.98
58018;BME280;43810;50.860;19.226;2023-03-25T11:49:11;97443.78;;;16.01;47.88
58018;BME280;43810;50.860;19.226;2023-03-25T11:51:42;97435.59;;;15.53;50.37
58018;BME280;43810;50.860;19.226;2023-03-25T11:54:13;97434.09;;;15.27;50.57
58018;BME280;43810;50.860;19.226;2023-03-25T11:56:41;97440.66;;;14.84;51.40
58018;BME280;43810;50.860;19.226;2023-03-25T11:59:26;97438.72;;;14.63;52.13
58018;BME280;43810;50.860;19.226;2023-03-25T12:02:17;97433.00;;;14.75;53.61
58018;BME280;43810;50.860;19.226;2023-03-25T12:05:14;97428.81;;;14.88;51.01
58018;BME280;43810;50.860;19.226;2023-03-25T12:07:46;97441.41;;;15.05;50.44
58018;BME280;43810;50.860;19.226;2023-03-25T12:10:33;97431.47;;;15.02;49.04
58018;BME280;43810;50.860;19.226;2023-03-25T12:21:37;97410.72;;;15.49;48.09
58018;BME280;43810;50.860;19.226;2023-03-25T12:24:36;97397.69;;;16.24;47.58
58018;BME280;43810;50.860;19.226;2023-03-25T12:32:49;97390.63;;;17.34;42.64
58018;BME280;43810;50.860;19.226;2023-03-25T12:43:52;97380.53;;;17.75;41.70
58018;BME280;43810;50.860;19.226;2023-03-25T12:55:48;97375.91;;;17.11;41.04
58018;BME280;43810;50.860;19.226;2023-03-25T13:06:15;97363.72;;;16.66;43.44
58018;BME280;43810;50.860;19.226;2023-03-25T13:09:10;97380.28;;;15.98;45.41
58018;BME280;43810;50.860;19.226;2023-03-25T13:11:44;97376.28;;;15.55;46.18
58018;BME280;43810;50.860;19.226;2023-03-25T13:14:37;97379.50;;;15.00;46.85
58018;BME280;43810;50.860;19.226;2023-03-25T13:17:10;97379.56;;;14.61;47.25
58018;BME280;43810;50.860;19.226;2023-03-25T13:19:40;97380.72;;;14.35;48.52
58018;BME280;43810;50.860;19.226;2023-03-25T13:22:23;97383.75;;;14.55;49.50
58018;BME280;43810;50.860;19.226;2023-03-25T13:24:52;97388.72;;;14.81;49.84
58018;BME280;43810;50.860;19.226;2023-03-25T13:27:22;97397.84;;;14.87;48.72
58018;BME280;43810;50.860;19.226;2023-03-25T13:29:56;97399.03;;;14.72;48.79
58018;BME280;43810;50.860;19.226;2023-03-25T13:32:34;97403.59;;;14.64;48.73
58018;BME280;43810;50.860;19.226;2023-03-25T13:35:10;97402.47;;;14.69;50.08
58018;BME280;43810;50.860;19.226;2023-03-25T13:37:52;97393.69;;;14.58;49.70
58018;BME280;43810;50.860;19.226;2023-03-25T13:40:29;97383.75;;;14.55;50.35
58018;BME280;43810;50.860;19.226;2023-03-25T13:43:06;97397.13;;;14.44;50.91
58018;BME280;43810;50.860;19.226;2023-03-25T13:48:16;97384.03;;;15.28;49.55
58018;BME280;43810;50.860;19.226;2023-03-25T13:50:43;97398.97;;;16.09;47.70
58018;BME280;43810;50.860;19.226;2023-03-25T13:53:33;97382.88;;;16.64;45.62
58018;BME280;43810;50.860;19.226;2023-03-25T14:02:02;97387.25;;;15.81;44.31
58018;BME280;43810;50.860;19.226;2023-03-25T14:04:50;97384.00;;;15.31;45.09
58018;BME280;43810;50.860;19.226;2023-03-25T14:13:03;97389.06;;;14.97;46.14
58018;BME280;43810;50.860;19.226;2023-03-25T14:15:34;97389.84;;;14.62;45.81
58018;BME280;43810;50.860;19.226;2023-03-25T14:18:02;97391.78;;;14.30;46.60
58018;BME280;43810;50.860;19.226;2023-03-25T14:20:33;97396.69;;;14.14;47.93
58018;BME280;43810;50.860;19.226;2023-03-25T14:23:06;97397.78;;;13.88;48.74
58018;BME280;43810;50.860;19.226;2023-03-25T14:25:38;97392.41;;;13.74;48.30
58018;BME280;43810;50.860;19.226;2023-03-25T14:28:06;97397.72;;;13.66;48.40
58018;BME280;43810;50.860;19.226;2023-03-25T14:30:34;97389.75;;;13.81;49.06
58018;BME280;43810;50.860;19.226;2023-03-25T14:33:00;97409.28;;;14.10;47.51
58018;BME280;43810;50.860;19.226;2023-03-25T14:51:41;97415.97;;;13.54;51.39
58018;BME280;43810;50.860;19.226;2023-03-25T14:54:29;97423.88;;;13.36;55.65
58018;BME280;43810;50.860;19.226;2023-03-25T14:57:14;97417.72;;;13.21;55.96
58018;BME280;43810;50.860;19.226;2023-03-25T14:59:44;97417.22;;;12.98;56.51
58018;BME280;43810;50.860;19.226;2023-03-25T15:02:20;97425.00;;;12.73;56.84
58018;BME280;43810;50.860;19.226;2023-03-25T15:04:59;97425.16;;;12.47;57.98
58018;BME280;43810;50.860;19.226;2023-03-25T15:07:41;97426.66;;;12.44;58.60
58018;BME280;43810;50.860;19.226;2023-03-25T15:10:20;97421.31;;;12.41;59.55
58018;BME280;43810;50.860;19.226;2023-03-25T15:12:54;97438.44;;;12.40;58.96
58018;BME280;43810;50.860;19.226;2023-03-25T15:15:26;97437.16;;;12.27;58.11
58018;BME280;43810;50.860;19.226;2023-03-25T15:17:54;97447.50;;;11.98;55.80
58018;BME280;43810;50.860;19.226;2023-03-25T15:26:13;97445.09;;;11.52;56.76
58018;BME280;43810;50.860;19.226;2023-03-25T15:31:25;97440.88;;;11.81;56.11
58018;BME280;43810;50.860;19.226;2023-03-25T15:34:07;97445.88;;;11.86;53.96
58018;BME280;43810;50.860;19.226;2023-03-25T15:39:30;97452.69;;;12.21;54.55
58018;BME280;43810;50.860;19.226;2023-03-25T15:42:32;97440.03;;;12.48;51.99
58018;BME280;43810;50.860;19.226;2023-03-25T15:55:58;97432.25;;;14.50;47.23
58018;BME280;43810;50.860;19.226;2023-03-25T15:58:58;97434.50;;;14.30;47.97